createdAt,value
2022-09-25T00:00:49.471Z,100799.41
2022-09-25T00:03:19.777Z,100800.41
2022-09-25T00:05:48.519Z,100795.22
2022-09-25T00:08:17.760Z,100800.56
2022-09-25T00:10:48.259Z,100797.19
2022-09-25T00:13:16.941Z,100808.84
2022-09-25T00:15:48.775Z,100803.50
2022-09-25T00:18:38.444Z,100805.31
2022-09-25T00:21:05.773Z,100803.66
2022-09-25T00:23:34.381Z,100808.44
2022-09-25T00:26:02.517Z,100799.59
2022-09-25T00:28:31.761Z,100796.09
2022-09-25T00:30:59.861Z,100796.41
2022-09-25T00:33:29.133Z,100799.06
2022-09-25T00:35:56.871Z,100793.84
2022-09-25T00:38:24.535Z,100794.69
2022-09-25T00:40:52.212Z,100790.22
2022-09-25T00:43:37.076Z,100791.34
2022-09-25T00:46:09.558Z,100795.84
2022-09-25T00:48:40.353Z,100803.31
2022-09-25T00:51:08.028Z,100796.44
2022-09-25T00:53:40.745Z,100800.97
2022-09-25T00:56:11.523Z,100803.63
2022-09-25T00:58:41.300Z,100812.47
2022-09-25T01:01:10.034Z,100813.63
2022-09-25T01:03:46.395Z,100814.75
2022-09-25T01:06:15.864Z,100819.25
2022-09-25T01:08:44.831Z,100807.91
2022-09-25T01:11:12.922Z,100814.91
2022-09-25T01:13:42.539Z,100817.88
2022-09-25T01:16:18.561Z,100818.03
2022-09-25T01:19:04.769Z,100821.53
2022-09-25T01:21:38.466Z,100813.69
2022-09-25T01:24:44.210Z,100809.19
2022-09-25T01:27:54.466Z,100812.84
2022-09-25T01:30:23.723Z,100807.78
2022-09-25T01:32:58.277Z,100814.97
2022-09-25T01:35:41.435Z,100807.09
2022-09-25T01:38:21.060Z,100807.78
2022-09-25T01:40:56.431Z,100804.28
2022-09-25T01:43:28.755Z,100799.94
2022-09-25T01:46:02.393Z,100804.72
2022-09-25T01:48:33.574Z,100803.88
2022-09-25T01:51:27.993Z,100797.69
2022-09-25T01:53:59.200Z,100801.53
2022-09-25T01:56:32.871Z,100807.03
2022-09-25T01:59:06.012Z,100795.63
2022-09-25T02:01:38.815Z,100805.31
2022-09-25T02:04:11.709Z,100804.06
2022-09-25T02:06:44.691Z,100805.22
2022-09-25T02:09:17.472Z,100799.06
2022-09-25T02:11:49.716Z,100801.72
2022-09-25T02:14:21.700Z,100803.56
2022-09-25T02:16:54.206Z,100797.22
2022-09-25T02:19:39.586Z,100809.03
2022-09-25T02:22:11.541Z,100807.34
2022-09-25T02:24:41.981Z,100808.22
2022-09-25T02:27:09.804Z,100808.50
2022-09-25T02:29:38.223Z,100814.81
2022-09-25T02:32:10.334Z,100816.66
2022-09-25T02:34:38.543Z,100818.59
2022-09-25T02:37:12.021Z,100820.44
2022-09-25T02:39:40.948Z,100820.59
2022-09-25T02:42:30.267Z,100828.75
2022-09-25T02:45:10.720Z,100823.00
2022-09-25T02:47:51.213Z,100821.50
2022-09-25T02:50:24.753Z,100823.75
2022-09-25T02:53:01.077Z,100823.03
2022-09-25T02:55:37.054Z,100821.66
2022-09-25T02:58:09.660Z,100821.94
2022-09-25T03:00:39.912Z,100818.59
2022-09-25T03:03:12.773Z,100814.38
2022-09-25T03:05:41.021Z,100823.66
2022-09-25T03:08:27.192Z,100819.44
2022-09-25T03:10:54.984Z,100814.41
2022-09-25T03:13:26.555Z,100817.34
2022-09-25T03:16:00.621Z,100818.50
2022-09-25T03:18:30.843Z,100819.50
2022-09-25T03:20:58.494Z,100820.44
2022-09-25T03:23:26.199Z,100825.94
2022-09-25T03:25:55.020Z,100826.09
2022-09-25T03:28:23.685Z,100826.25
2022-09-25T03:30:59.385Z,100823.56
2022-09-25T03:33:29.981Z,100819.19
2022-09-25T03:36:02.256Z,100815.00
2022-09-25T03:38:29.862Z,100816.00
2022-09-25T03:40:57.480Z,100816.00
2022-09-25T03:43:25.128Z,100802.81
2022-09-25T03:45:52.744Z,100808.28
2022-09-25T03:48:21.621Z,100809.25
2022-09-25T03:50:50.777Z,100806.91
2022-09-25T03:53:19.191Z,100803.41
2022-09-25T03:55:48.498Z,100803.66
2022-09-25T03:58:16.592Z,100794.00
2022-09-25T04:00:44.203Z,100793.31
2022-09-25T04:03:11.780Z,100792.44
2022-09-25T04:05:39.605Z,100796.25
2022-09-25T04:08:08.632Z,100798.22
2022-09-25T04:10:38.800Z,100785.13
2022-09-25T04:13:07.100Z,100793.13
2022-09-25T04:15:35.244Z,100797.63
2022-09-25T04:18:06.100Z,100794.25
2022-09-25T04:20:34.294Z,100786.41
2022-09-25T04:23:01.934Z,100790.03
2022-09-25T04:25:30.827Z,100796.50
2022-09-25T04:27:58.791Z,100805.59
2022-09-25T04:30:28.449Z,100793.28
2022-09-25T04:33:13.831Z,100802.25
2022-09-25T04:35:42.804Z,100802.41
2022-09-25T04:38:10.618Z,100799.06
2022-09-25T04:40:39.801Z,100793.84
2022-09-25T04:43:08.139Z,100796.66
2022-09-25T04:45:37.253Z,100797.66
2022-09-25T04:48:05.748Z,100794.25
2022-09-25T04:50:34.349Z,100798.91
2022-09-25T04:53:06.007Z,100802.69
2022-09-25T04:55:33.539Z,100809.13
2022-09-25T04:58:02.995Z,100802.28
2022-09-25T05:00:32.816Z,100797.22
2022-09-25T05:03:00.654Z,100805.34
2022-09-25T05:05:30.433Z,100799.44
2022-09-25T05:07:59.427Z,100804.22
2022-09-25T05:10:29.158Z,100802.69
2022-09-25T05:12:58.123Z,100817.97
2022-09-25T05:15:28.298Z,100806.75
2022-09-25T05:18:07.083Z,100813.19
2022-09-25T05:20:36.571Z,100805.63
2022-09-25T05:23:04.440Z,100805.06
2022-09-25T05:25:32.921Z,100810.66
2022-09-25T05:28:01.984Z,100804.78
2022-09-25T05:30:34.178Z,100802.38
2022-09-25T05:33:02.176Z,100806.28
2022-09-25T05:35:31.980Z,100794.38
2022-09-25T05:37:59.798Z,100801.81
2022-09-25T05:40:27.970Z,100790.56
2022-09-25T05:42:56.093Z,100802.50
2022-09-25T05:45:24.858Z,100800.22
2022-09-25T05:48:02.887Z,100803.28
2022-09-25T05:50:32.178Z,100803.56
2022-09-25T05:53:00.653Z,100803.84
2022-09-25T05:55:29.146Z,100802.41
2022-09-25T05:58:01.353Z,100801.88
2022-09-25T06:00:29.221Z,100801.28
2022-09-25T06:02:56.758Z,100807.84
2022-09-25T06:05:26.003Z,100801.13
2022-09-25T06:07:54.625Z,100800.69
2022-09-25T06:10:22.764Z,100805.41
2022-09-25T06:12:50.381Z,100794.31
2022-09-25T06:15:17.937Z,100794.75
2022-09-25T06:17:45.500Z,100788.69
2022-09-25T06:20:16.087Z,100797.06
2022-09-25T06:22:45.330Z,100796.38
2022-09-25T06:25:15.324Z,100794.81
2022-09-25T06:27:43.106Z,100801.22
2022-09-25T06:30:11.592Z,100808.34
2022-09-25T06:32:39.160Z,100805.69
2022-09-25T06:35:07.161Z,100806.41
2022-09-25T06:37:34.703Z,100807.25
2022-09-25T06:40:04.199Z,100809.78
2022-09-25T06:42:34.993Z,100806.16
2022-09-25T06:45:02.699Z,100809.53
2022-09-25T06:47:30.343Z,100805.91
2022-09-25T06:49:57.897Z,100811.94
2022-09-25T06:52:25.786Z,100811.66
2022-09-25T06:54:53.366Z,100813.09
2022-09-25T06:57:22.282Z,100812.94
2022-09-25T06:59:49.942Z,100811.84
2022-09-25T07:02:35.633Z,100814.13
2022-09-25T07:05:03.283Z,100811.19
2022-09-25T07:07:31.476Z,100812.47
2022-09-25T07:10:01.157Z,100812.06
2022-09-25T07:12:30.002Z,100811.81
2022-09-25T07:14:57.598Z,100810.75
2022-09-25T07:17:25.171Z,100821.28
2022-09-25T07:19:52.748Z,100813.19
2022-09-25T07:22:20.600Z,100820.06
2022-09-25T07:24:48.149Z,100816.88
2022-09-25T07:27:15.728Z,100812.53
2022-09-25T07:29:44.704Z,100818.66
2022-09-25T07:32:12.261Z,100820.19
2022-09-25T07:34:39.857Z,100820.50
2022-09-25T07:37:07.825Z,100824.41
2022-09-25T07:39:35.372Z,100822.06
2022-09-25T07:42:03.827Z,100828.75
2022-09-25T07:44:37.606Z,100821.47
2022-09-25T07:47:08.953Z,100825.53
2022-09-25T07:49:36.796Z,100816.09
2022-09-25T07:52:06.076Z,100817.19
2022-09-25T07:54:34.501Z,100821.41
2022-09-25T07:57:02.064Z,100819.09
2022-09-25T07:59:29.683Z,100821.59
2022-09-25T08:01:58.107Z,100820.56
2022-09-25T08:04:27.080Z,100824.47
2022-09-25T08:06:54.868Z,100824.97
2022-09-25T08:09:22.388Z,100830.25
2022-09-25T08:11:49.960Z,100830.88
2022-09-25T08:14:19.605Z,100831.81
2022-09-25T08:16:48.842Z,100829.53
2022-09-25T08:19:18.397Z,100826.13
2022-09-25T08:21:47.320Z,100827.69
2022-09-25T08:24:15.146Z,100818.56
2022-09-25T08:26:42.992Z,100813.97
2022-09-25T08:29:10.983Z,100815.19
2022-09-25T08:31:38.604Z,100821.81
2022-09-25T08:34:28.471Z,100818.44
2022-09-25T08:36:57.907Z,100810.66
2022-09-25T08:39:25.527Z,100806.75
2022-09-25T08:41:55.901Z,100812.28
2022-09-25T08:44:29.508Z,100812.31
2022-09-25T08:47:19.709Z,100812.88
2022-09-25T08:49:57.391Z,100816.22
2022-09-25T08:52:26.524Z,100811.25
2022-09-25T08:54:54.456Z,100811.31
2022-09-25T08:57:30.406Z,100817.34
2022-09-25T09:00:03.359Z,100818.53
2022-09-25T09:02:40.053Z,100815.19
2022-09-25T09:05:18.180Z,100814.53
2022-09-25T09:07:50.611Z,100815.22
2022-09-25T09:10:31.078Z,100812.38
2022-09-25T09:13:02.476Z,100825.56
2022-09-25T09:15:36.441Z,100812.34
2022-09-25T09:18:17.697Z,100818.38
2022-09-25T09:20:51.692Z,100815.69
2022-09-25T09:23:23.771Z,100815.53
2022-09-25T09:26:01.292Z,100811.34
2022-09-25T09:28:49.993Z,100816.06
2022-09-25T09:31:26.433Z,100809.50
2022-09-25T09:34:02.579Z,100822.06
2022-09-25T09:36:38.788Z,100813.91
2022-09-25T09:39:18.624Z,100806.84
2022-09-25T09:41:56.387Z,100818.25
2022-09-25T09:44:40.961Z,100811.88
2022-09-25T09:47:22.726Z,100820.78
2022-09-25T09:49:54.743Z,100806.72
2022-09-25T09:52:25.108Z,100816.28
2022-09-25T09:54:56.942Z,100817.44
2022-09-25T09:57:27.634Z,100813.91
2022-09-25T10:00:04.574Z,100813.69
2022-09-25T10:02:42.495Z,100807.16
2022-09-25T10:05:19.007Z,100804.97
2022-09-25T10:07:49.053Z,100807.59
2022-09-25T10:10:19.990Z,100804.75
2022-09-25T10:12:51.857Z,100804.25
2022-09-25T10:15:29.007Z,100801.47
2022-09-25T10:17:59.556Z,100796.13
2022-09-25T10:20:31.953Z,100797.31
2022-09-25T10:23:04.044Z,100797.34
2022-09-25T10:25:40.663Z,100791.50
2022-09-25T10:28:26.654Z,100783.13
2022-09-25T10:30:54.841Z,100792.66
2022-09-25T10:33:24.123Z,100786.81
2022-09-25T10:35:55.049Z,100791.28
2022-09-25T10:38:31.545Z,100793.66
2022-09-25T10:41:04.629Z,100794.63
2022-09-25T10:43:32.813Z,100790.44
2022-09-25T10:46:14.656Z,100781.88
2022-09-25T10:49:01.154Z,100784.25
2022-09-25T10:51:29.337Z,100781.59
2022-09-25T10:54:13.388Z,100790.97
2022-09-25T10:56:43.958Z,100791.81
2022-09-25T10:59:18.624Z,100793.66
2022-09-25T11:01:48.645Z,100790.16
2022-09-25T11:04:20.855Z,100784.78
2022-09-25T11:06:52.276Z,100782.13
2022-09-25T11:09:23.053Z,100787.13
2022-09-25T11:11:54.698Z,100789.50
2022-09-25T11:14:32.158Z,100784.97
2022-09-25T11:17:01.598Z,100793.31
2022-09-25T11:19:31.675Z,100787.78
2022-09-25T11:22:07.935Z,100784.44
2022-09-25T11:24:50.661Z,100782.94
2022-09-25T11:27:24.621Z,100774.03
2022-09-25T11:30:01.340Z,100773.91
2022-09-25T11:32:35.880Z,100771.03
2022-09-25T11:35:19.756Z,100767.19
2022-09-25T11:37:57.775Z,100766.88
2022-09-25T11:40:57.468Z,100760.69
2022-09-25T11:43:38.832Z,100759.19
2022-09-25T11:46:13.558Z,100763.72
2022-09-25T11:48:51.941Z,100761.50
2022-09-25T11:51:35.929Z,100759.66
2022-09-25T11:54:32.550Z,100759.31
2022-09-25T11:57:07.430Z,100760.50
2022-09-25T11:59:50.536Z,100751.09
2022-09-25T12:02:29.840Z,100750.94
2022-09-25T12:05:20.522Z,100748.13
2022-09-25T12:08:03.673Z,100735.56
2022-09-25T12:10:41.548Z,100737.41
2022-09-25T12:13:22.019Z,100738.72
2022-09-25T12:16:02.069Z,100732.88
2022-09-25T12:18:47.410Z,100737.41
2022-09-25T12:21:21.713Z,100724.69
2022-09-25T12:23:57.884Z,100721.34
2022-09-25T12:26:32.803Z,100719.50
2022-09-25T12:29:25.981Z,100712.97
2022-09-25T12:32:04.430Z,100712.13
2022-09-25T12:34:52.701Z,100701.22
2022-09-25T12:37:31.649Z,100693.19
2022-09-25T12:40:02.837Z,100697.03
2022-09-25T12:42:41.495Z,100695.72
2022-09-25T12:45:16.297Z,100697.72
2022-09-25T12:47:55.276Z,100690.69
2022-09-25T12:50:28.599Z,100687.66
2022-09-25T12:53:00.555Z,100697.41
2022-09-25T12:55:35.100Z,100691.50
2022-09-25T12:58:18.065Z,100687.66
2022-09-25T13:00:50.489Z,100688.97
2022-09-25T13:03:31.024Z,100685.97
2022-09-25T13:06:10.071Z,100683.63
2022-09-25T13:08:41.934Z,100678.44
2022-09-25T13:11:25.944Z,100680.44
2022-09-25T13:13:55.822Z,100675.03
2022-09-25T13:16:23.561Z,100671.84
2022-09-25T13:19:12.460Z,100670.31
2022-09-25T13:21:43.226Z,100667.97
2022-09-25T13:24:15.611Z,100671.28
2022-09-25T13:26:46.988Z,100665.38
2022-09-25T13:29:24.205Z,100665.53
2022-09-25T13:31:53.415Z,100666.16
2022-09-25T13:34:24.378Z,100667.66
2022-09-25T13:36:55.097Z,100654.00
2022-09-25T13:39:45.981Z,100654.13
2022-09-25T13:42:21.296Z,100651.72
2022-09-25T13:45:00.105Z,100651.63
2022-09-25T13:48:08.198Z,100648.16
2022-09-25T13:50:42.885Z,100645.91
2022-09-25T13:53:32.252Z,100646.09
2022-09-25T13:56:06.930Z,100642.81
2022-09-25T13:59:00.265Z,100633.34
2022-09-25T14:01:35.360Z,100636.34
2022-09-25T14:04:10.712Z,100635.31
2022-09-25T14:06:42.022Z,100640.97
2022-09-25T14:09:12.468Z,100636.25
2022-09-25T14:11:43.453Z,100634.47
2022-09-25T14:14:15.816Z,100639.19
2022-09-25T14:16:47.743Z,100632.03
2022-09-25T14:19:21.322Z,100629.06
2022-09-25T14:21:51.855Z,100626.56
2022-09-25T14:24:22.048Z,100627.84
2022-09-25T14:26:52.106Z,100629.47
2022-09-25T14:29:23.483Z,100622.78
2022-09-25T14:32:01.282Z,100629.25
2022-09-25T14:34:54.274Z,100624.41
2022-09-25T14:37:42.489Z,100623.81
2022-09-25T14:40:20.389Z,100619.94
2022-09-25T14:43:04.006Z,100623.84
2022-09-25T14:45:47.506Z,100617.78
2022-09-25T14:48:19.090Z,100618.50
2022-09-25T14:50:50.333Z,100619.41
2022-09-25T14:53:25.767Z,100623.94
2022-09-25T14:55:54.056Z,100610.00
2022-09-25T14:58:27.748Z,100619.28
2022-09-25T15:00:58.955Z,100607.88
2022-09-25T15:03:31.072Z,100616.09
2022-09-25T15:06:01.741Z,100616.66
2022-09-25T15:08:37.670Z,100607.56
2022-09-25T15:11:12.487Z,100614.31
2022-09-25T15:13:40.882Z,100607.75
2022-09-25T15:16:31.582Z,100613.28
2022-09-25T15:19:00.841Z,100609.31
2022-09-25T15:21:30.839Z,100606.31
2022-09-25T15:24:03.463Z,100607.13
2022-09-25T15:26:32.602Z,100608.31
2022-09-25T15:29:00.348Z,100605.34
2022-09-25T15:31:36.219Z,100605.88
2022-09-25T15:34:11.111Z,100607.03
2022-09-25T15:36:38.818Z,100596.00
2022-09-25T15:39:15.451Z,100603.91
2022-09-25T15:41:43.671Z,100600.25
2022-09-25T15:44:19.885Z,100601.91
2022-09-25T15:46:50.863Z,100589.06
2022-09-25T15:49:22.244Z,100592.44
2022-09-25T15:51:55.134Z,100598.81
2022-09-25T15:54:34.957Z,100592.63
2022-09-25T15:57:06.566Z,100593.81
2022-09-25T15:59:37.191Z,100596.66
2022-09-25T16:02:39.385Z,100587.09
2022-09-25T16:05:10.495Z,100582.41
2022-09-25T16:07:39.490Z,100587.78
2022-09-25T16:10:30.594Z,100590.63
2022-09-25T16:12:58.233Z,100580.09
2022-09-25T16:15:53.023Z,100575.59
2022-09-25T16:18:39.368Z,100582.81
2022-09-25T16:21:16.427Z,100580.78
2022-09-25T16:23:45.108Z,100584.81
2022-09-25T16:26:19.613Z,100580.81
2022-09-25T16:28:51.554Z,100591.53
2022-09-25T16:31:22.332Z,100586.50
2022-09-25T16:33:52.416Z,100591.69
2022-09-25T16:36:20.353Z,100587.88
2022-09-25T16:39:05.514Z,100598.91
2022-09-25T16:41:35.824Z,100603.75
2022-09-25T16:44:14.159Z,100598.75
2022-09-25T16:46:42.402Z,100597.41
2022-09-25T16:49:11.996Z,100591.72
2022-09-25T16:51:45.337Z,100604.63
2022-09-25T16:54:14.941Z,100607.78
2022-09-25T16:56:45.591Z,100607.28
2022-09-25T16:59:18.505Z,100607.09
2022-09-25T17:01:47.972Z,100607.47
2022-09-25T17:04:16.535Z,100607.78
2022-09-25T17:06:45.812Z,100609.78
2022-09-25T17:09:15.038Z,100610.09
2022-09-25T17:11:46.966Z,100603.25
2022-09-25T17:14:20.957Z,100604.09
2022-09-25T17:16:48.528Z,100601.41
2022-09-25T17:19:17.970Z,100599.03
2022-09-25T17:21:47.330Z,100599.19
2022-09-25T17:24:16.698Z,100605.88
2022-09-25T17:26:46.659Z,100607.03
2022-09-25T17:29:14.388Z,100598.50
2022-09-25T17:31:42.089Z,100597.00
2022-09-25T17:34:17.307Z,100601.00
2022-09-25T17:36:44.970Z,100604.66
2022-09-25T17:39:13.356Z,100595.13
2022-09-25T17:41:41.516Z,100595.47
2022-09-25T17:44:16.063Z,100594.09
2022-09-25T17:46:43.722Z,100587.41
2022-09-25T17:49:11.585Z,100593.91
2022-09-25T17:51:40.042Z,100586.38
2022-09-25T17:54:07.816Z,100583.03
2022-09-25T17:56:36.056Z,100587.72
2022-09-25T17:59:05.042Z,100581.66
2022-09-25T18:01:39.184Z,100583.00
2022-09-25T18:04:20.145Z,100581.66
2022-09-25T18:06:47.784Z,100578.44
2022-09-25T18:09:15.485Z,100576.28
2022-09-25T18:11:44.702Z,100581.28
2022-09-25T18:14:14.276Z,100591.44
2022-09-25T18:16:45.454Z,100583.88
2022-09-25T18:19:35.130Z,100586.06
2022-09-25T18:22:18.842Z,100582.03
2022-09-25T18:24:47.016Z,100582.66
2022-09-25T18:27:16.265Z,100584.97
2022-09-25T18:29:45.720Z,100581.94
2022-09-25T18:32:14.634Z,100579.91
2022-09-25T18:34:42.335Z,100577.69
2022-09-25T18:37:10.752Z,100581.88
2022-09-25T18:39:38.830Z,100582.34
2022-09-25T18:42:06.604Z,100580.09
2022-09-25T18:44:41.968Z,100573.53
2022-09-25T18:47:10.427Z,100581.00
2022-09-25T18:49:39.491Z,100573.50
2022-09-25T18:52:07.904Z,100572.13
2022-09-25T18:54:35.493Z,100571.91
2022-09-25T18:57:03.156Z,100570.88
2022-09-25T18:59:30.942Z,100574.16
2022-09-25T19:01:58.743Z,100563.78
2022-09-25T19:04:27.204Z,100555.94
2022-09-25T19:06:56.143Z,100559.72
2022-09-25T19:09:27.098Z,100559.06
2022-09-25T19:11:55.060Z,100559.22
2022-09-25T19:14:23.901Z,100555.00
2022-09-25T19:16:53.200Z,100560.66
2022-09-25T19:19:21.026Z,100562.66
2022-09-25T19:21:48.774Z,100559.63
2022-09-25T19:24:18.624Z,100564.41
2022-09-25T19:26:47.910Z,100555.84
2022-09-25T19:29:15.562Z,100564.19
2022-09-25T19:31:43.390Z,100566.47
2022-09-25T19:34:10.937Z,100570.56
2022-09-25T19:36:38.563Z,100561.34
2022-09-25T19:39:06.521Z,100562.66
2022-09-25T19:41:39.002Z,100556.09
2022-09-25T19:44:12.913Z,100559.22
2022-09-25T19:46:42.326Z,100556.00
2022-09-25T19:49:10.548Z,100541.44
2022-09-25T19:51:38.597Z,100539.38
2022-09-25T19:54:07.385Z,100545.31
2022-09-25T19:56:40.435Z,100545.25
2022-09-25T19:59:08.648Z,100546.66
2022-09-25T20:01:36.537Z,100541.06
2022-09-25T20:04:08.210Z,100539.00
2022-09-25T20:06:37.420Z,100540.44
2022-09-25T20:09:06.132Z,100539.47
2022-09-25T20:11:36.087Z,100536.72
2022-09-25T20:14:05.843Z,100540.81
2022-09-25T20:16:33.914Z,100531.72
2022-09-25T20:19:03.819Z,100529.66
2022-09-25T20:21:34.323Z,100535.56
2022-09-25T20:24:04.066Z,100531.66
2022-09-25T20:26:32.714Z,100525.22
2022-09-25T20:29:04.584Z,100523.16
2022-09-25T20:31:34.143Z,100521.91
2022-09-25T20:34:02.388Z,100522.91
2022-09-25T20:36:29.980Z,100513.66
2022-09-25T20:38:58.607Z,100507.25
2022-09-25T20:41:27.438Z,100511.31
2022-09-25T20:43:56.946Z,100511.72
2022-09-25T20:46:27.557Z,100508.66
2022-09-25T20:48:57.862Z,100509.06
2022-09-25T20:51:27.923Z,100507.13
2022-09-25T20:53:57.850Z,100507.53
2022-09-25T20:56:26.363Z,100503.50
2022-09-25T20:58:55.739Z,100502.25
2022-09-25T21:01:25.590Z,100500.00
2022-09-25T21:03:55.284Z,100492.56
2022-09-25T21:06:24.698Z,100492.81
2022-09-25T21:08:55.840Z,100501.25
2022-09-25T21:11:24.724Z,100494.50
2022-09-25T21:13:54.061Z,100501.91
2022-09-25T21:16:23.160Z,100499.66
2022-09-25T21:18:54.812Z,100502.88
2022-09-25T21:21:23.115Z,100499.81
2022-09-25T21:23:53.880Z,100502.03
2022-09-25T21:26:22.756Z,100498.13
2022-09-25T21:28:52.766Z,100495.88
2022-09-25T21:31:22.421Z,100493.47
2022-09-25T21:33:51.829Z,100491.09
2022-09-25T21:36:21.615Z,100482.44
2022-09-25T21:38:49.320Z,100477.25
2022-09-25T21:41:19.736Z,100478.50
2022-09-25T21:43:47.990Z,100478.78
2022-09-25T21:46:18.185Z,100482.56
2022-09-25T21:48:49.644Z,100473.16
2022-09-25T21:51:18.926Z,100475.25
2022-09-25T21:53:48.667Z,100472.03
2022-09-25T21:56:18.751Z,100466.97
2022-09-25T21:58:47.194Z,100464.63
2022-09-25T22:01:17.092Z,100470.19
2022-09-25T22:03:48.082Z,100460.69
2022-09-25T22:06:19.851Z,100460.09
2022-09-25T22:08:50.909Z,100462.19
2022-09-25T22:11:19.562Z,100452.69
2022-09-25T22:13:48.451Z,100458.28
2022-09-25T22:16:19.697Z,100460.09
2022-09-25T22:18:49.420Z,100455.16
2022-09-25T22:21:19.093Z,100452.66
2022-09-25T22:23:47.109Z,100450.13
2022-09-25T22:26:17.180Z,100447.75
2022-09-25T22:28:45.476Z,100447.03
2022-09-25T22:31:16.305Z,100447.16
2022-09-25T22:33:44.371Z,100449.13
2022-09-25T22:36:13.104Z,100445.63
2022-09-25T22:38:41.285Z,100440.47
2022-09-25T22:41:10.653Z,100432.63
2022-09-25T22:43:40.125Z,100442.53
2022-09-25T22:46:09.252Z,100433.00
2022-09-25T22:48:37.459Z,100438.47
2022-09-25T22:51:07.718Z,100439.56
2022-09-25T22:53:36.724Z,100444.03
2022-09-25T22:56:12.605Z,100428.22
2022-09-25T22:58:42.234Z,100431.16
2022-09-25T23:01:13.132Z,100421.53
2022-09-25T23:03:40.765Z,100414.81
2022-09-25T23:06:09.041Z,100415.78
2022-09-25T23:08:36.604Z,100417.75
2022-09-25T23:11:07.935Z,100415.19
2022-09-25T23:13:36.916Z,100413.53
2022-09-25T23:16:07.821Z,100415.34
2022-09-25T23:18:36.421Z,100417.00
2022-09-25T23:21:05.153Z,100409.91
2022-09-25T23:23:33.319Z,100408.91
2022-09-25T23:26:06.072Z,100401.84
2022-09-25T23:28:34.730Z,100394.13
2022-09-25T23:31:09.294Z,100384.34
2022-09-25T23:33:37.810Z,100390.50
2022-09-25T23:36:07.079Z,100388.44
2022-09-25T23:38:35.058Z,100376.84
2022-09-25T23:41:03.386Z,100376.00
2022-09-25T23:43:31.055Z,100374.03
2022-09-25T23:45:58.649Z,100369.56
2022-09-25T23:48:27.742Z,100369.47
2022-09-25T23:50:55.576Z,100361.50
2022-09-25T23:53:23.231Z,100368.50
2022-09-25T23:55:50.993Z,100361.09
2022-09-25T23:58:18.842Z,100359.84
